sensor_id;sensor_type;location;lat;lon;timestamp;P1;durP1;ratioP1;P2;durP2;ratioP2
9465;SDS011;4771;48.726;9.006;2023-06-04T00:02:07;8.07;;;4.65;;
9465;SDS011;4771;48.726;9.006;2023-06-04T00:04:35;8.23;;;4.90;;
9465;SDS011;4771;48.726;9.006;2023-06-04T00:07:03;6.03;;;4.35;;
9465;SDS011;4771;48.726;9.006;2023-06-04T00:09:31;7.18;;;4.93;;
9465;SDS011;4771;48.726;9.006;2023-06-04T00:11:58;5.82;;;4.50;;
9465;SDS011;4771;48.726;9.006;2023-06-04T00:14:24;8.45;;;4.78;;
9465;SDS011;4771;48.726;9.006;2023-06-04T00:16:51;6.85;;;4.55;;
9465;SDS011;4771;48.726;9.006;2023-06-04T00:19:18;7.10;;;4.53;;
9465;SDS011;4771;48.726;9.006;2023-06-04T00:21:45;5.30;;;4.80;;
9465;SDS011;4771;48.726;9.006;2023-06-04T00:24:14;6.80;;;4.78;;
9465;SDS011;4771;48.726;9.006;2023-06-04T00:26:40;6.90;;;4.70;;
9465;SDS011;4771;48.726;9.006;2023-06-04T00:29:07;11.10;;;4.97;;
9465;SDS011;4771;48.726;9.006;2023-06-04T00:31:34;6.55;;;4.70;;
9465;SDS011;4771;48.726;9.006;2023-06-04T00:34:03;6.82;;;4.72;;
9465;SDS011;4771;48.726;9.006;2023-06-04T00:36:30;5.70;;;4.78;;
9465;SDS011;4771;48.726;9.006;2023-06-04T00:38:57;6.80;;;4.88;;
9465;SDS011;4771;48.726;9.006;2023-06-04T00:41:25;7.30;;;4.95;;
9465;SDS011;4771;48.726;9.006;2023-06-04T00:43:52;5.07;;;4.45;;
9465;SDS011;4771;48.726;9.006;2023-06-04T00:46:22;7.68;;;4.47;;
9465;SDS011;4771;48.726;9.006;2023-06-04T00:48:50;6.68;;;4.65;;
9465;SDS011;4771;48.726;9.006;2023-06-04T00:51:17;8.90;;;5.00;;
9465;SDS011;4771;48.726;9.006;2023-06-04T00:53:45;5.85;;;4.55;;
9465;SDS011;4771;48.726;9.006;2023-06-04T00:56:12;6.90;;;4.78;;
9465;SDS011;4771;48.726;9.006;2023-06-04T00:58:40;6.28;;;4.47;;
9465;SDS011;4771;48.726;9.006;2023-06-04T01:01:10;6.65;;;4.65;;
9465;SDS011;4771;48.726;9.006;2023-06-04T01:03:43;6.05;;;4.45;;
9465;SDS011;4771;48.726;9.006;2023-06-04T01:06:14;6.70;;;4.70;;
9465;SDS011;4771;48.726;9.006;2023-06-04T01:08:48;6.60;;;4.55;;
9465;SDS011;4771;48.726;9.006;2023-06-04T01:11:19;6.75;;;4.82;;
9465;SDS011;4771;48.726;9.006;2023-06-04T01:13:57;6.10;;;4.55;;
9465;SDS011;4771;48.726;9.006;2023-06-04T01:16:24;8.20;;;4.50;;
9465;SDS011;4771;48.726;9.006;2023-06-04T01:18:54;7.00;;;4.68;;
9465;SDS011;4771;48.726;9.006;2023-06-04T01:21:24;5.40;;;4.40;;
9465;SDS011;4771;48.726;9.006;2023-06-04T01:23:53;6.68;;;4.32;;
9465;SDS011;4771;48.726;9.006;2023-06-04T01:26:24;8.30;;;4.60;;
9465;SDS011;4771;48.726;9.006;2023-06-04T01:28:52;4.90;;;4.20;;
9465;SDS011;4771;48.726;9.006;2023-06-04T01:31:22;6.78;;;4.43;;
9465;SDS011;4771;48.726;9.006;2023-06-04T01:33:51;6.65;;;4.72;;
9465;SDS011;4771;48.726;9.006;2023-06-04T01:36:18;5.72;;;4.43;;
9465;SDS011;4771;48.726;9.006;2023-06-04T01:38:45;6.43;;;4.20;;
9465;SDS011;4771;48.726;9.006;2023-06-04T01:41:12;6.22;;;4.50;;
9465;SDS011;4771;48.726;9.006;2023-06-04T01:43:39;6.45;;;4.32;;
9465;SDS011;4771;48.726;9.006;2023-06-04T01:46:06;4.82;;;3.80;;
9465;SDS011;4771;48.726;9.006;2023-06-04T01:48:34;5.53;;;3.97;;
9465;SDS011;4771;48.726;9.006;2023-06-04T01:51:02;8.68;;;3.95;;
9465;SDS011;4771;48.726;9.006;2023-06-04T01:53:30;6.47;;;3.83;;
9465;SDS011;4771;48.726;9.006;2023-06-04T01:55:57;10.13;;;3.78;;
9465;SDS011;4771;48.726;9.006;2023-06-04T01:58:24;4.30;;;3.33;;
9465;SDS011;4771;48.726;9.006;2023-06-04T02:00:54;7.45;;;3.47;;
9465;SDS011;4771;48.726;9.006;2023-06-04T02:03:21;4.32;;;3.60;;
9465;SDS011;4771;48.726;9.006;2023-06-04T02:05:49;4.57;;;3.75;;
9465;SDS011;4771;48.726;9.006;2023-06-04T02:08:16;5.40;;;4.00;;
9465;SDS011;4771;48.726;9.006;2023-06-04T02:10:44;6.55;;;3.88;;
9465;SDS011;4771;48.726;9.006;2023-06-04T02:13:12;7.95;;;4.60;;
9465;SDS011;4771;48.726;9.006;2023-06-04T02:15:39;7.93;;;4.10;;
9465;SDS011;4771;48.726;9.006;2023-06-04T02:18:13;5.22;;;3.90;;
9465;SDS011;4771;48.726;9.006;2023-06-04T02:20:42;6.63;;;3.72;;
9465;SDS011;4771;48.726;9.006;2023-06-04T02:23:11;6.13;;;4.13;;
9465;SDS011;4771;48.726;9.006;2023-06-04T02:25:39;6.32;;;3.85;;
9465;SDS011;4771;48.726;9.006;2023-06-04T02:28:06;8.23;;;4.13;;
9465;SDS011;4771;48.726;9.006;2023-06-04T02:30:33;5.07;;;3.58;;
9465;SDS011;4771;48.726;9.006;2023-06-04T02:32:59;5.35;;;4.20;;
9465;SDS011;4771;48.726;9.006;2023-06-04T02:35:27;5.60;;;4.22;;
9465;SDS011;4771;48.726;9.006;2023-06-04T02:37:53;4.35;;;3.40;;
9465;SDS011;4771;48.726;9.006;2023-06-04T02:40:23;7.85;;;3.95;;
9465;SDS011;4771;48.726;9.006;2023-06-04T02:42:50;8.48;;;3.65;;
9465;SDS011;4771;48.726;9.006;2023-06-04T02:45:18;4.97;;;3.15;;
9465;SDS011;4771;48.726;9.006;2023-06-04T02:47:45;4.60;;;3.65;;
9465;SDS011;4771;48.726;9.006;2023-06-04T02:50:12;5.55;;;3.70;;
9465;SDS011;4771;48.726;9.006;2023-06-04T02:52:40;5.70;;;3.20;;
9465;SDS011;4771;48.726;9.006;2023-06-04T02:55:07;7.85;;;3.45;;
9465;SDS011;4771;48.726;9.006;2023-06-04T02:57:38;4.78;;;3.63;;
9465;SDS011;4771;48.726;9.006;2023-06-04T03:00:07;6.20;;;3.13;;
9465;SDS011;4771;48.726;9.006;2023-06-04T03:02:37;4.00;;;3.00;;
9465;SDS011;4771;48.726;9.006;2023-06-04T03:05:05;5.32;;;3.38;;
9465;SDS011;4771;48.726;9.006;2023-06-04T03:07:34;8.25;;;3.63;;
9465;SDS011;4771;48.726;9.006;2023-06-04T03:10:01;4.95;;;3.13;;
9465;SDS011;4771;48.726;9.006;2023-06-04T03:12:28;5.88;;;3.50;;
9465;SDS011;4771;48.726;9.006;2023-06-04T03:14:56;5.13;;;3.40;;
9465;SDS011;4771;48.726;9.006;2023-06-04T03:17:23;5.35;;;3.78;;
9465;SDS011;4771;48.726;9.006;2023-06-04T03:19:50;4.50;;;3.25;;
9465;SDS011;4771;48.726;9.006;2023-06-04T03:22:16;5.85;;;3.58;;
9465;SDS011;4771;48.726;9.006;2023-06-04T03:24:43;4.38;;;3.30;;
9465;SDS011;4771;48.726;9.006;2023-06-04T03:27:10;5.95;;;3.30;;
9465;SDS011;4771;48.726;9.006;2023-06-04T03:29:37;5.47;;;3.53;;
9465;SDS011;4771;48.726;9.006;2023-06-04T03:32:07;4.32;;;3.25;;
9465;SDS011;4771;48.726;9.006;2023-06-04T03:34:34;6.60;;;3.72;;
9465;SDS011;4771;48.726;9.006;2023-06-04T03:37:01;7.13;;;3.95;;
9465;SDS011;4771;48.726;9.006;2023-06-04T03:39:28;7.00;;;3.50;;
9465;SDS011;4771;48.726;9.006;2023-06-04T03:41:55;4.88;;;3.40;;
9465;SDS011;4771;48.726;9.006;2023-06-04T03:44:22;4.55;;;3.50;;
9465;SDS011;4771;48.726;9.006;2023-06-04T03:46:49;4.13;;;3.15;;
9465;SDS011;4771;48.726;9.006;2023-06-04T03:49:17;6.78;;;3.72;;
9465;SDS011;4771;48.726;9.006;2023-06-04T03:51:44;4.30;;;3.38;;
9465;SDS011;4771;48.726;9.006;2023-06-04T03:54:11;6.03;;;3.72;;
9465;SDS011;4771;48.726;9.006;2023-06-04T03:56:41;6.68;;;3.70;;
9465;SDS011;4771;48.726;9.006;2023-06-04T03:59:09;4.13;;;3.28;;
9465;SDS011;4771;48.726;9.006;2023-06-04T04:01:36;5.40;;;3.70;;
9465;SDS011;4771;48.726;9.006;2023-06-04T04:04:03;4.47;;;3.20;;
9465;SDS011;4771;48.726;9.006;2023-06-04T04:06:32;4.30;;;3.25;;
9465;SDS011;4771;48.726;9.006;2023-06-04T04:08:59;4.75;;;3.40;;
9465;SDS011;4771;48.726;9.006;2023-06-04T04:11:26;9.27;;;3.90;;
9465;SDS011;4771;48.726;9.006;2023-06-04T04:13:52;4.22;;;3.63;;
9465;SDS011;4771;48.726;9.006;2023-06-04T04:16:19;4.97;;;3.53;;
9465;SDS011;4771;48.726;9.006;2023-06-04T04:18:46;5.25;;;3.13;;
9465;SDS011;4771;48.726;9.006;2023-06-04T04:21:13;4.65;;;2.97;;
9465;SDS011;4771;48.726;9.006;2023-06-04T04:23:41;6.18;;;3.50;;
9465;SDS011;4771;48.726;9.006;2023-06-04T04:26:08;6.72;;;3.50;;
9465;SDS011;4771;48.726;9.006;2023-06-04T04:28:36;4.53;;;3.25;;
9465;SDS011;4771;48.726;9.006;2023-06-04T04:31:03;4.55;;;3.60;;
9465;SDS011;4771;48.726;9.006;2023-06-04T04:33:31;5.18;;;3.35;;
9465;SDS011;4771;48.726;9.006;2023-06-04T04:36:01;4.78;;;3.20;;
9465;SDS011;4771;48.726;9.006;2023-06-04T04:38:29;5.10;;;3.15;;
9465;SDS011;4771;48.726;9.006;2023-06-04T04:41:00;4.93;;;3.38;;
9465;SDS011;4771;48.726;9.006;2023-06-04T04:43:30;7.40;;;3.50;;
9465;SDS011;4771;48.726;9.006;2023-06-04T04:45:58;6.82;;;3.40;;
9465;SDS011;4771;48.726;9.006;2023-06-04T04:48:25;4.30;;;3.33;;
9465;SDS011;4771;48.726;9.006;2023-06-04T04:50:52;5.40;;;3.00;;
9465;SDS011;4771;48.726;9.006;2023-06-04T04:53:18;5.85;;;3.05;;
9465;SDS011;4771;48.726;9.006;2023-06-04T04:55:45;4.38;;;3.42;;
9465;SDS011;4771;48.726;9.006;2023-06-04T04:58:14;3.40;;;3.03;;
9465;SDS011;4771;48.726;9.006;2023-06-04T05:00:41;4.80;;;3.05;;
9465;SDS011;4771;48.726;9.006;2023-06-04T05:03:08;6.40;;;3.03;;
9465;SDS011;4771;48.726;9.006;2023-06-04T05:05:35;5.60;;;3.40;;
9465;SDS011;4771;48.726;9.006;2023-06-04T05:08:02;5.38;;;3.10;;
9465;SDS011;4771;48.726;9.006;2023-06-04T05:10:30;4.95;;;3.10;;
9465;SDS011;4771;48.726;9.006;2023-06-04T05:12:58;6.60;;;2.97;;
9465;SDS011;4771;48.726;9.006;2023-06-04T05:15:27;5.90;;;3.10;;
9465;SDS011;4771;48.726;9.006;2023-06-04T05:17:54;6.35;;;2.92;;
9465;SDS011;4771;48.726;9.006;2023-06-04T05:20:21;4.05;;;2.80;;
9465;SDS011;4771;48.726;9.006;2023-06-04T05:22:48;5.50;;;2.88;;
9465;SDS011;4771;48.726;9.006;2023-06-04T05:25:16;5.30;;;3.10;;
9465;SDS011;4771;48.726;9.006;2023-06-04T05:27:43;6.93;;;3.17;;
9465;SDS011;4771;48.726;9.006;2023-06-04T05:30:10;4.72;;;2.80;;
9465;SDS011;4771;48.726;9.006;2023-06-04T05:32:39;3.25;;;2.42;;
9465;SDS011;4771;48.726;9.006;2023-06-04T05:35:07;6.70;;;2.80;;
9465;SDS011;4771;48.726;9.006;2023-06-04T05:37:35;6.35;;;2.80;;
9465;SDS011;4771;48.726;9.006;2023-06-04T05:40:05;4.68;;;2.50;;
9465;SDS011;4771;48.726;9.006;2023-06-04T05:42:34;3.75;;;2.53;;
9465;SDS011;4771;48.726;9.006;2023-06-04T05:45:01;4.07;;;2.58;;
9465;SDS011;4771;48.726;9.006;2023-06-04T05:47:28;6.57;;;2.70;;
9465;SDS011;4771;48.726;9.006;2023-06-04T05:49:57;4.10;;;2.83;;
9465;SDS011;4771;48.726;9.006;2023-06-04T05:52:24;3.72;;;2.47;;
9465;SDS011;4771;48.726;9.006;2023-06-04T05:54:51;4.45;;;2.55;;
9465;SDS011;4771;48.726;9.006;2023-06-04T05:57:18;6.57;;;2.47;;
9465;SDS011;4771;48.726;9.006;2023-06-04T05:59:46;5.85;;;2.50;;
9465;SDS011;4771;48.726;9.006;2023-06-04T06:02:13;4.43;;;2.60;;
9465;SDS011;4771;48.726;9.006;2023-06-04T06:04:40;2.97;;;2.35;;
9465;SDS011;4771;48.726;9.006;2023-06-04T06:07:08;4.18;;;2.42;;
9465;SDS011;4771;48.726;9.006;2023-06-04T06:09:35;3.85;;;2.85;;
9465;SDS011;4771;48.726;9.006;2023-06-04T06:12:02;3.10;;;2.58;;
9465;SDS011;4771;48.726;9.006;2023-06-04T06:14:30;5.70;;;2.70;;
9465;SDS011;4771;48.726;9.006;2023-06-04T06:16:57;5.45;;;2.58;;
9465;SDS011;4771;48.726;9.006;2023-06-04T06:19:25;3.72;;;2.40;;
9465;SDS011;4771;48.726;9.006;2023-06-04T06:21:52;2.72;;;1.90;;
9465;SDS011;4771;48.726;9.006;2023-06-04T06:24:20;3.88;;;2.40;;
9465;SDS011;4771;48.726;9.006;2023-06-04T06:26:47;3.67;;;2.58;;
9465;SDS011;4771;48.726;9.006;2023-06-04T06:29:14;3.80;;;2.45;;
9465;SDS011;4771;48.726;9.006;2023-06-04T06:31:41;4.03;;;2.53;;
9465;SDS011;4771;48.726;9.006;2023-06-04T06:34:08;3.97;;;2.50;;
9465;SDS011;4771;48.726;9.006;2023-06-04T06:36:34;4.35;;;2.47;;
9465;SDS011;4771;48.726;9.006;2023-06-04T06:39:01;3.08;;;2.60;;
9465;SDS011;4771;48.726;9.006;2023-06-04T06:41:30;3.15;;;2.28;;
9465;SDS011;4771;48.726;9.006;2023-06-04T06:43:57;6.13;;;2.63;;
9465;SDS011;4771;48.726;9.006;2023-06-04T06:46:24;4.95;;;2.60;;
9465;SDS011;4771;48.726;9.006;2023-06-04T06:48:50;4.25;;;2.55;;
9465;SDS011;4771;48.726;9.006;2023-06-04T06:51:17;4.40;;;2.50;;
9465;SDS011;4771;48.726;9.006;2023-06-04T06:53:44;3.88;;;2.45;;
9465;SDS011;4771;48.726;9.006;2023-06-04T06:56:11;5.55;;;2.47;;
9465;SDS011;4771;48.726;9.006;2023-06-04T06:58:41;3.35;;;2.50;;
9465;SDS011;4771;48.726;9.006;2023-06-04T07:01:08;5.15;;;2.50;;
9465;SDS011;4771;48.726;9.006;2023-06-04T07:03:35;3.20;;;2.30;;
9465;SDS011;4771;48.726;9.006;2023-06-04T07:06:03;2.88;;;2.30;;
9465;SDS011;4771;48.726;9.006;2023-06-04T07:08:30;6.60;;;2.42;;
9465;SDS011;4771;48.726;9.006;2023-06-04T07:10:57;3.05;;;2.15;;
9465;SDS011;4771;48.726;9.006;2023-06-04T07:13:24;4.93;;;2.63;;
9465;SDS011;4771;48.726;9.006;2023-06-04T07:15:52;2.97;;;2.53;;
9465;SDS011;4771;48.726;9.006;2023-06-04T07:18:19;4.65;;;2.45;;
9465;SDS011;4771;48.726;9.006;2023-06-04T07:20:46;5.20;;;2.80;;
9465;SDS011;4771;48.726;9.006;2023-06-04T07:23:14;4.40;;;2.30;;
9465;SDS011;4771;48.726;9.006;2023-06-04T07:25:41;3.78;;;2.53;;
9465;SDS011;4771;48.726;9.006;2023-06-04T07:28:07;3.00;;;2.45;;
9465;SDS011;4771;48.726;9.006;2023-06-04T07:30:34;5.40;;;2.35;;
9465;SDS011;4771;48.726;9.006;2023-06-04T07:33:03;9.20;;;3.08;;
9465;SDS011;4771;48.726;9.006;2023-06-04T07:35:31;3.67;;;2.30;;
9465;SDS011;4771;48.726;9.006;2023-06-04T07:37:58;2.83;;;2.20;;
9465;SDS011;4771;48.726;9.006;2023-06-04T07:40:25;4.30;;;2.78;;
9465;SDS011;4771;48.726;9.006;2023-06-04T07:42:51;6.63;;;2.47;;
9465;SDS011;4771;48.726;9.006;2023-06-04T07:45:18;2.50;;;2.30;;
9465;SDS011;4771;48.726;9.006;2023-06-04T07:47:45;5.22;;;2.90;;
9465;SDS011;4771;48.726;9.006;2023-06-04T07:50:13;3.40;;;2.72;;
9465;SDS011;4771;48.726;9.006;2023-06-04T07:52:40;4.10;;;2.88;;
9465;SDS011;4771;48.726;9.006;2023-06-04T07:55:08;4.78;;;2.90;;
9465;SDS011;4771;48.726;9.006;2023-06-04T07:57:35;3.83;;;2.65;;
9465;SDS011;4771;48.726;9.006;2023-06-04T08:00:02;4.28;;;2.63;;
9465;SDS011;4771;48.726;9.006;2023-06-04T08:02:30;4.93;;;2.50;;
9465;SDS011;4771;48.726;9.006;2023-06-04T08:04:57;4.90;;;2.85;;
9465;SDS011;4771;48.726;9.006;2023-06-04T08:07:25;10.75;;;2.85;;
9465;SDS011;4771;48.726;9.006;2023-06-04T08:09:52;3.17;;;2.58;;
9465;SDS011;4771;48.726;9.006;2023-06-04T08:12:20;5.50;;;2.60;;
9465;SDS011;4771;48.726;9.006;2023-06-04T08:14:47;6.60;;;2.70;;
9465;SDS011;4771;48.726;9.006;2023-06-04T08:17:15;7.25;;;2.53;;
9465;SDS011;4771;48.726;9.006;2023-06-04T08:19:42;6.10;;;2.80;;
9465;SDS011;4771;48.726;9.006;2023-06-04T08:22:09;6.32;;;2.50;;
9465;SDS011;4771;48.726;9.006;2023-06-04T08:24:38;3.72;;;2.42;;
9465;SDS011;4771;48.726;9.006;2023-06-04T08:27:05;5.40;;;2.50;;
9465;SDS011;4771;48.726;9.006;2023-06-04T08:29:33;6.13;;;2.50;;
9465;SDS011;4771;48.726;9.006;2023-06-04T08:32:00;4.13;;;2.63;;
9465;SDS011;4771;48.726;9.006;2023-06-04T08:34:27;4.38;;;2.60;;
9465;SDS011;4771;48.726;9.006;2023-06-04T08:36:54;7.93;;;2.88;;
9465;SDS011;4771;48.726;9.006;2023-06-04T08:39:22;3.65;;;2.10;;
9465;SDS011;4771;48.726;9.006;2023-06-04T08:41:51;7.80;;;2.45;;
9465;SDS011;4771;48.726;9.006;2023-06-04T08:44:19;3.85;;;2.10;;
9465;SDS011;4771;48.726;9.006;2023-06-04T08:46:47;3.15;;;2.50;;
9465;SDS011;4771;48.726;9.006;2023-06-04T08:49:19;3.45;;;2.40;;
9465;SDS011;4771;48.726;9.006;2023-06-04T08:51:48;2.50;;;2.30;;
9465;SDS011;4771;48.726;9.006;2023-06-04T08:54:15;5.45;;;2.45;;
9465;SDS011;4771;48.726;9.006;2023-06-04T08:56:42;7.07;;;2.63;;
9465;SDS011;4771;48.726;9.006;2023-06-04T08:59:11;3.35;;;2.40;;
9465;SDS011;4771;48.726;9.006;2023-06-04T09:01:39;3.20;;;2.30;;
9465;SDS011;4771;48.726;9.006;2023-06-04T09:04:10;3.35;;;2.63;;
9465;SDS011;4771;48.726;9.006;2023-06-04T09:06:37;7.18;;;2.40;;
9465;SDS011;4771;48.726;9.006;2023-06-04T09:09:07;3.95;;;2.65;;
9465;SDS011;4771;48.726;9.006;2023-06-04T09:11:36;3.70;;;2.70;;
9465;SDS011;4771;48.726;9.006;2023-06-04T09:14:07;4.97;;;2.13;;
9465;SDS011;4771;48.726;9.006;2023-06-04T09:19:24;5.60;;;2.75;;
9465;SDS011;4771;48.726;9.006;2023-06-04T09:21:51;3.70;;;2.35;;
9465;SDS011;4771;48.726;9.006;2023-06-04T09:24:19;3.58;;;2.50;;
9465;SDS011;4771;48.726;9.006;2023-06-04T09:26:47;6.07;;;2.35;;
9465;SDS011;4771;48.726;9.006;2023-06-04T09:29:14;4.15;;;2.65;;
9465;SDS011;4771;48.726;9.006;2023-06-04T09:31:41;8.55;;;3.13;;
9465;SDS011;4771;48.726;9.006;2023-06-04T09:34:13;3.70;;;2.28;;
9465;SDS011;4771;48.726;9.006;2023-06-04T09:36:40;4.97;;;2.70;;
9465;SDS011;4771;48.726;9.006;2023-06-04T09:39:14;10.68;;;2.92;;
9465;SDS011;4771;48.726;9.006;2023-06-04T09:41:42;2.80;;;2.53;;
9465;SDS011;4771;48.726;9.006;2023-06-04T09:44:09;3.53;;;2.63;;
9465;SDS011;4771;48.726;9.006;2023-06-04T09:46:37;3.03;;;2.53;;
9465;SDS011;4771;48.726;9.006;2023-06-04T09:49:04;5.00;;;2.58;;
9465;SDS011;4771;48.726;9.006;2023-06-04T09:51:33;4.65;;;2.50;;
9465;SDS011;4771;48.726;9.006;2023-06-04T09:54:01;4.78;;;2.70;;
9465;SDS011;4771;48.726;9.006;2023-06-04T09:56:29;6.05;;;2.72;;
9465;SDS011;4771;48.726;9.006;2023-06-04T09:58:57;5.53;;;2.60;;
9465;SDS011;4771;48.726;9.006;2023-06-04T10:01:27;4.35;;;2.63;;
9465;SDS011;4771;48.726;9.006;2023-06-04T10:03:57;4.78;;;2.35;;
9465;SDS011;4771;48.726;9.006;2023-06-04T10:06:28;4.18;;;2.67;;
9465;SDS011;4771;48.726;9.006;2023-06-04T10:09:03;4.93;;;2.85;;
9465;SDS011;4771;48.726;9.006;2023-06-04T10:11:34;5.93;;;2.63;;
9465;SDS011;4771;48.726;9.006;2023-06-04T10:14:02;4.47;;;2.88;;
9465;SDS011;4771;48.726;9.006;2023-06-04T10:16:34;4.25;;;3.08;;
9465;SDS011;4771;48.726;9.006;2023-06-04T10:19:04;3.97;;;2.80;;
9465;SDS011;4771;48.726;9.006;2023-06-04T10:21:34;3.92;;;2.70;;
9465;SDS011;4771;48.726;9.006;2023-06-04T10:24:01;5.40;;;2.80;;
9465;SDS011;4771;48.726;9.006;2023-06-04T10:26:28;3.72;;;2.60;;
9465;SDS011;4771;48.726;9.006;2023-06-04T10:28:56;5.20;;;2.50;;
9465;SDS011;4771;48.726;9.006;2023-06-04T10:31:23;4.35;;;2.80;;
9465;SDS011;4771;48.726;9.006;2023-06-04T10:33:53;9.40;;;3.03;;
9465;SDS011;4771;48.726;9.006;2023-06-04T10:36:21;5.78;;;2.90;;
9465;SDS011;4771;48.726;9.006;2023-06-04T10:38:50;5.57;;;2.92;;
9465;SDS011;4771;48.726;9.006;2023-06-04T10:41:19;5.25;;;3.05;;
9465;SDS011;4771;48.726;9.006;2023-06-04T10:43:48;3.53;;;3.00;;
9465;SDS011;4771;48.726;9.006;2023-06-04T10:46:16;5.47;;;2.92;;
9465;SDS011;4771;48.726;9.006;2023-06-04T10:48:47;5.40;;;2.92;;
9465;SDS011;4771;48.726;9.006;2023-06-04T10:51:15;4.88;;;3.10;;
9465;SDS011;4771;48.726;9.006;2023-06-04T10:53:42;2.63;;;2.40;;
9465;SDS011;4771;48.726;9.006;2023-06-04T10:56:10;4.03;;;3.03;;
9465;SDS011;4771;48.726;9.006;2023-06-04T10:58:37;3.97;;;2.88;;
9465;SDS011;4771;48.726;9.006;2023-06-04T11:01:04;5.10;;;3.00;;
9465;SDS011;4771;48.726;9.006;2023-06-04T11:03:34;4.63;;;2.90;;
9465;SDS011;4771;48.726;9.006;2023-06-04T11:06:02;3.97;;;3.40;;
9465;SDS011;4771;48.726;9.006;2023-06-04T11:08:40;4.22;;;3.20;;
9465;SDS011;4771;48.726;9.006;2023-06-04T11:11:11;4.28;;;2.70;;
9465;SDS011;4771;48.726;9.006;2023-06-04T11:13:40;5.38;;;2.95;;
9465;SDS011;4771;48.726;9.006;2023-06-04T11:16:16;3.47;;;2.75;;
9465;SDS011;4771;48.726;9.006;2023-06-04T11:18:53;5.00;;;2.95;;
9465;SDS011;4771;48.726;9.006;2023-06-04T11:21:21;4.40;;;2.90;;
9465;SDS011;4771;48.726;9.006;2023-06-04T11:23:48;4.93;;;2.33;;
9465;SDS011;4771;48.726;9.006;2023-06-04T11:26:16;5.93;;;2.78;;
9465;SDS011;4771;48.726;9.006;2023-06-04T11:28:43;3.70;;;2.88;;
9465;SDS011;4771;48.726;9.006;2023-06-04T11:31:14;7.43;;;2.88;;
9465;SDS011;4771;48.726;9.006;2023-06-04T11:33:41;5.40;;;2.90;;
9465;SDS011;4771;48.726;9.006;2023-06-04T11:36:09;4.10;;;2.80;;
9465;SDS011;4771;48.726;9.006;2023-06-04T11:38:36;5.82;;;3.38;;
9465;SDS011;4771;48.726;9.006;2023-06-04T11:41:03;5.05;;;2.92;;
9465;SDS011;4771;48.726;9.006;2023-06-04T11:43:33;4.35;;;3.08;;
9465;SDS011;4771;48.726;9.006;2023-06-04T11:46:05;4.60;;;3.10;;
9465;SDS011;4771;48.726;9.006;2023-06-04T11:48:32;5.25;;;3.08;;
9465;SDS011;4771;48.726;9.006;2023-06-04T11:51:04;3.40;;;2.75;;
9465;SDS011;4771;48.726;9.006;2023-06-04T11:53:33;5.50;;;2.83;;
9465;SDS011;4771;48.726;9.006;2023-06-04T11:56:00;6.25;;;2.92;;
9465;SDS011;4771;48.726;9.006;2023-06-04T11:58:27;4.18;;;2.85;;
9465;SDS011;4771;48.726;9.006;2023-06-04T12:00:56;7.03;;;3.28;;
9465;SDS011;4771;48.726;9.006;2023-06-04T12:03:31;6.45;;;2.97;;
9465;SDS011;4771;48.726;9.006;2023-06-04T12:06:09;4.78;;;3.25;;
9465;SDS011;4771;48.726;9.006;2023-06-04T12:08:44;4.60;;;3.28;;
9465;SDS011;4771;48.726;9.006;2023-06-04T12:11:21;5.40;;;3.20;;
9465;SDS011;4771;48.726;9.006;2023-06-04T12:13:53;5.57;;;3.30;;
9465;SDS011;4771;48.726;9.006;2023-06-04T12:16:22;4.72;;;3.00;;
9465;SDS011;4771;48.726;9.006;2023-06-04T12:18:49;6.28;;;3.10;;
9465;SDS011;4771;48.726;9.006;2023-06-04T12:21:22;4.55;;;3.17;;
9465;SDS011;4771;48.726;9.006;2023-06-04T12:23:52;5.15;;;3.10;;
9465;SDS011;4771;48.726;9.006;2023-06-04T12:26:21;4.75;;;3.20;;
9465;SDS011;4771;48.726;9.006;2023-06-04T12:28:59;5.53;;;3.42;;
9465;SDS011;4771;48.726;9.006;2023-06-04T12:31:27;4.35;;;3.33;;
9465;SDS011;4771;48.726;9.006;2023-06-04T12:33:57;6.20;;;3.55;;
9465;SDS011;4771;48.726;9.006;2023-06-04T12:36:25;6.15;;;2.90;;
9465;SDS011;4771;48.726;9.006;2023-06-04T12:38:53;3.13;;;2.78;;
9465;SDS011;4771;48.726;9.006;2023-06-04T12:41:23;5.32;;;2.78;;
9465;SDS011;4771;48.726;9.006;2023-06-04T12:43:51;3.75;;;3.00;;
9465;SDS011;4771;48.726;9.006;2023-06-04T12:46:18;6.25;;;3.53;;
9465;SDS011;4771;48.726;9.006;2023-06-04T12:48:46;3.78;;;2.83;;
9465;SDS011;4771;48.726;9.006;2023-06-04T12:51:13;4.05;;;3.00;;
9465;SDS011;4771;48.726;9.006;2023-06-04T12:53:40;5.03;;;3.20;;
9465;SDS011;4771;48.726;9.006;2023-06-04T12:56:07;4.40;;;3.20;;
9465;SDS011;4771;48.726;9.006;2023-06-04T12:58:34;6.10;;;3.40;;
9465;SDS011;4771;48.726;9.006;2023-06-04T13:01:01;5.57;;;3.15;;
9465;SDS011;4771;48.726;9.006;2023-06-04T13:03:29;5.20;;;3.25;;
9465;SDS011;4771;48.726;9.006;2023-06-04T13:05:57;6.93;;;3.28;;
9465;SDS011;4771;48.726;9.006;2023-06-04T13:08:24;4.65;;;3.03;;
9465;SDS011;4771;48.726;9.006;2023-06-04T13:10:51;4.57;;;2.90;;
9465;SDS011;4771;48.726;9.006;2023-06-04T13:13:19;3.60;;;2.90;;
9465;SDS011;4771;48.726;9.006;2023-06-04T13:15:46;5.70;;;3.10;;
9465;SDS011;4771;48.726;9.006;2023-06-04T13:18:13;4.28;;;2.88;;
9465;SDS011;4771;48.726;9.006;2023-06-04T13:20:40;4.97;;;3.25;;
9465;SDS011;4771;48.726;9.006;2023-06-04T13:23:08;3.45;;;2.70;;
9465;SDS011;4771;48.726;9.006;2023-06-04T13:25:37;4.45;;;2.55;;
9465;SDS011;4771;48.726;9.006;2023-06-04T13:28:04;4.15;;;2.75;;
9465;SDS011;4771;48.726;9.006;2023-06-04T13:30:33;4.13;;;2.55;;
9465;SDS011;4771;48.726;9.006;2023-06-04T13:33:00;5.88;;;2.80;;
9465;SDS011;4771;48.726;9.006;2023-06-04T13:35:27;5.18;;;2.70;;
9465;SDS011;4771;48.726;9.006;2023-06-04T13:37:54;4.97;;;2.75;;
9465;SDS011;4771;48.726;9.006;2023-06-04T13:40:22;4.40;;;2.65;;
9465;SDS011;4771;48.726;9.006;2023-06-04T13:42:50;3.05;;;2.50;;
9465;SDS011;4771;48.726;9.006;2023-06-04T13:45:17;4.75;;;2.60;;
9465;SDS011;4771;48.726;9.006;2023-06-04T13:47:45;5.53;;;2.78;;
9465;SDS011;4771;48.726;9.006;2023-06-04T13:50:13;6.45;;;2.40;;
9465;SDS011;4771;48.726;9.006;2023-06-04T13:52:39;4.40;;;2.63;;
9465;SDS011;4771;48.726;9.006;2023-06-04T13:55:07;5.50;;;2.67;;
9465;SDS011;4771;48.726;9.006;2023-06-04T13:57:35;3.97;;;2.58;;
9465;SDS011;4771;48.726;9.006;2023-06-04T14:00:02;4.65;;;2.80;;
9465;SDS011;4771;48.726;9.006;2023-06-04T14:02:31;7.30;;;2.90;;
9465;SDS011;4771;48.726;9.006;2023-06-04T14:04:58;6.32;;;2.72;;
9465;SDS011;4771;48.726;9.006;2023-06-04T14:07:25;4.15;;;3.03;;
9465;SDS011;4771;48.726;9.006;2023-06-04T14:09:52;2.85;;;2.58;;
9465;SDS011;4771;48.726;9.006;2023-06-04T14:12:20;3.35;;;2.70;;
9465;SDS011;4771;48.726;9.006;2023-06-04T14:14:49;4.43;;;2.83;;
9465;SDS011;4771;48.726;9.006;2023-06-04T14:17:16;3.28;;;2.60;;
9465;SDS011;4771;48.726;9.006;2023-06-04T14:19:44;5.80;;;2.92;;
9465;SDS011;4771;48.726;9.006;2023-06-04T14:22:11;5.72;;;2.70;;
9465;SDS011;4771;48.726;9.006;2023-06-04T14:24:39;3.80;;;2.58;;
9465;SDS011;4771;48.726;9.006;2023-06-04T14:27:06;5.88;;;2.67;;
9465;SDS011;4771;48.726;9.006;2023-06-04T14:29:34;2.78;;;2.30;;
9465;SDS011;4771;48.726;9.006;2023-06-04T14:32:04;4.07;;;2.88;;
9465;SDS011;4771;48.726;9.006;2023-06-04T14:34:31;2.65;;;2.40;;
9465;SDS011;4771;48.726;9.006;2023-06-04T14:36:58;4.68;;;3.05;;
9465;SDS011;4771;48.726;9.006;2023-06-04T14:39:25;5.53;;;2.70;;
9465;SDS011;4771;48.726;9.006;2023-06-04T14:41:52;3.03;;;2.72;;
9465;SDS011;4771;48.726;9.006;2023-06-04T14:44:20;4.05;;;2.70;;
9465;SDS011;4771;48.726;9.006;2023-06-04T14:46:48;4.25;;;2.67;;
9465;SDS011;4771;48.726;9.006;2023-06-04T14:49:18;5.07;;;2.92;;
9465;SDS011;4771;48.726;9.006;2023-06-04T14:51:45;4.05;;;3.10;;
9465;SDS011;4771;48.726;9.006;2023-06-04T14:54:12;6.32;;;2.80;;
9465;SDS011;4771;48.726;9.006;2023-06-04T14:56:39;4.25;;;2.75;;
9465;SDS011;4771;48.726;9.006;2023-06-04T14:59:06;3.75;;;2.83;;
9465;SDS011;4771;48.726;9.006;2023-06-04T15:01:36;3.45;;;2.92;;
9465;SDS011;4771;48.726;9.006;2023-06-04T15:04:03;6.25;;;3.00;;
9465;SDS011;4771;48.726;9.006;2023-06-04T15:06:32;3.70;;;2.85;;
9465;SDS011;4771;48.726;9.006;2023-06-04T15:08:59;5.68;;;2.83;;
9465;SDS011;4771;48.726;9.006;2023-06-04T15:11:26;5.57;;;3.00;;
9465;SDS011;4771;48.726;9.006;2023-06-04T15:13:53;3.35;;;2.88;;
9465;SDS011;4771;48.726;9.006;2023-06-04T15:16:20;4.90;;;2.80;;
9465;SDS011;4771;48.726;9.006;2023-06-04T15:18:47;4.22;;;2.45;;
9465;SDS011;4771;48.726;9.006;2023-06-04T15:21:14;3.95;;;2.67;;
9465;SDS011;4771;48.726;9.006;2023-06-04T15:23:42;3.88;;;3.20;;